Time;durP1;ratioP1;P1;durP2;ratioP2;P2;SDS_P1;SDS_P2;PMS_P1;PMS_P2;Temp;Humidity;BMP_temperature;BMP_pressure;BME280_temperature;BME280_humidity;BME280_pressure;Samples;Min_cycle;Max_cycle;Signal;HPM_P1;HPM_P2
2021/06/03 00:00:38;;;;;;;7.15;5.62;;;;;;;11.84;100.00;99770.52;1663617;85;26584;-67
2021/06/03 00:03:06;;;;;;;9.95;5.15;;;;;;;11.85;100.00;99770.25;1663502;86;20953;-69
2021/06/03 00:05:46;;;;;;;10.72;4.67;;;;;;;11.85;100.00;99762.72;1663638;86;21013;-69
2021/06/03 00:08:13;;;;;;;6.62;4.83;;;;;;;11.83;100.00;99766.19;1663471;86;21511;-69
2021/06/03 00:10:52;;;;;;;9.85;4.58;;;;;;;11.83;100.00;99766.19;1663747;86;20897;-70
2021/06/03 00:13:23;;;;;;;12.65;4.30;;;;;;;11.85;100.00;99772.13;1663269;85;21381;-67
2021/06/03 00:15:52;;;;;;;9.38;5.15;;;;;;;11.87;100.00;99778.09;1663814;86;20909;-68
2021/06/03 00:18:19;;;;;;;8.13;4.67;;;;;;;11.96;100.00;99777.91;1663513;86;21432;-70
2021/06/03 00:20:48;;;;;;;5.70;4.37;;;;;;;11.96;100.00;99777.37;1663655;85;20886;-68
2021/06/03 00:23:14;;;;;;;5.33;4.40;;;;;;;12.01;100.00;99774.72;1663569;85;20909;-70
2021/06/03 00:25:41;;;;;;;8.43;4.55;;;;;;;12.14;100.00;99772.11;1664457;86;20869;-68
2021/06/03 00:28:08;;;;;;;7.15;4.28;;;;;;;12.19;100.00;99771.34;1664475;86;20905;-69
2021/06/03 00:30:35;;;;;;;12.10;4.95;;;;;;;12.20;100.00;99779.70;1664300;86;21496;-68
2021/06/03 00:33:02;;;;;;;5.17;4.25;;;;;;;12.17;100.00;99774.81;1664519;86;21257;-67
2021/06/03 00:35:31;;;;;;;6.42;4.30;;;;;;;12.16;100.00;99770.52;1664557;86;20897;-67
2021/06/03 00:37:58;;;;;;;5.83;4.20;;;;;;;12.13;100.00;99771.05;1664731;86;20901;-70
2021/06/03 00:40:25;;;;;;;9.50;4.23;;;;;;;12.11;100.00;99772.64;1664662;86;20936;-69
2021/06/03 00:42:53;;;;;;;;;;;;;;;12.08;100.00;99771.81;1667026;86;21015;-70
2021/06/03 00:45:32;;;;;;;9.53;4.85;;;;;;;12.09;100.00;99772.63;1664502;86;20642;-68
2021/06/03 00:48:00;;;;;;;10.17;4.60;;;;;;;12.06;100.00;99775.30;1664518;86;20945;-69
2021/06/03 00:50:37;;;;;;;9.63;4.60;;;;;;;12.02;100.00;99764.76;1664539;86;21389;-67
2021/06/03 00:53:05;;;;;;;6.55;4.55;;;;;;;12.00;100.00;99777.14;1664794;86;21043;-68
2021/06/03 00:55:35;;;;;;;9.80;4.60;;;;;;;12.00;100.00;99776.31;1664303;86;21121;-67
2021/06/03 00:58:03;;;;;;;13.38;6.90;;;;;;;12.00;100.00;99778.48;1664732;86;21091;-70
2021/06/03 01:00:31;;;;;;;11.10;5.57;;;;;;;12.01;100.00;99776.60;1664424;86;20921;-67
2021/06/03 01:03:01;;;;;;;11.85;4.25;;;;;;;11.97;100.00;99780.33;1664085;85;20877;-69
2021/06/03 01:05:36;;;;;;;12.43;4.60;;;;;;;11.95;100.00;99775.73;1664734;86;20957;-68
2021/06/03 01:08:15;;;;;;;8.45;4.20;;;;;;;11.95;100.00;99772.23;1664537;86;20992;-70
2021/06/03 01:11:00;;;;;;;7.13;4.23;;;;;;;11.95;100.00;99776.27;1664685;86;21980;-67
2021/06/03 01:14:02;;;;;;;9.85;4.20;;;;;;;11.97;100.00;99771.45;1664234;85;20842;-68
2021/06/03 01:16:31;;;;;;;8.13;4.62;;;;;;;11.96;100.00;99780.06;1664534;86;21000;-69
2021/06/03 01:19:05;;;;;;;11.12;4.62;;;;;;;11.94;100.00;99780.84;1664344;86;21448;-70
2021/06/03 01:21:48;;;;;;;6.67;4.47;;;;;;;11.94;100.00;99777.35;1675316;85;20968;-69
2021/06/03 01:24:37;;;;;;;12.37;4.20;;;;;;;11.95;100.00;99778.42;1663996;86;21140;-70
2021/06/03 01:27:12;;;;;;;8.93;4.30;;;;;;;11.95;100.00;99781.11;1674873;85;20992;-70
2021/06/03 01:29:59;;;;;;;8.88;4.17;;;;;;;11.99;100.00;99776.05;1664563;86;20906;-70
2021/06/03 01:32:29;;;;;;;10.55;4.05;;;;;;;12.00;100.00;99779.00;1662706;85;20909;-70
2021/06/03 01:34:56;;;;;;;8.55;4.40;;;;;;;12.00;100.00;99782.52;1664497;86;21511;-68
2021/06/03 01:37:23;;;;;;;4.25;3.67;;;;;;;12.04;100.00;99788.19;1652671;86;21203;-70
2021/06/03 01:39:52;;;;;;;10.32;4.78;;;;;;;12.06;100.00;99790.09;1664347;86;20894;-70
2021/06/03 01:42:21;;;;;;;6.95;5.10;;;;;;;12.07;100.00;99793.58;1652734;86;21432;-68
2021/06/03 01:44:50;;;;;;;13.20;4.53;;;;;;;12.06;100.00;99792.78;1664521;86;21452;-69
2021/06/03 01:47:18;;;;;;;10.18;4.75;;;;;;;12.07;100.00;99789.55;1664723;86;20865;-68
2021/06/03 01:49:47;;;;;;;8.80;4.65;;;;;;;12.03;100.00;99784.39;1664433;86;20961;-70
2021/06/03 01:52:13;;;;;;;17.45;5.08;;;;;;;12.03;100.00;99780.36;1664335;86;20952;-69
2021/06/03 01:54:43;;;;;;;9.40;4.70;;;;;;;11.99;100.00;99782.77;1664643;85;20906;-69
2021/06/03 01:57:11;;;;;;;8.88;4.97;;;;;;;11.93;100.00;99779.75;1664637;86;21023;-70
2021/06/03 01:59:39;;;;;;;9.58;4.45;;;;;;;11.88;100.00;99786.43;1664440;85;20957;-69
2021/06/03 02:02:09;;;;;;;9.88;4.53;;;;;;;11.83;100.00;99785.83;1664526;86;22097;-69
2021/06/03 02:04:36;;;;;;;7.55;4.83;;;;;;;11.77;100.00;99786.32;1664472;86;20968;-70
2021/06/03 02:07:04;;;;;;;9.80;4.75;;;;;;;11.69;100.00;99790.02;1664474;86;20988;-69
2021/06/03 02:09:32;;;;;;;7.55;3.90;;;;;;;11.64;100.00;99785.41;1664364;86;20873;-69
2021/06/03 02:12:01;;;;;;;11.18;4.90;;;;;;;11.53;100.00;99788.52;1664417;86;20901;-70
2021/06/03 02:14:36;;;;;;;6.50;4.62;;;;;;;11.42;100.00;99790.84;1664317;86;21151;-69
2021/06/03 02:17:21;;;;;;;7.05;4.58;;;;;;;11.30;100.00;99785.61;1664262;86;21023;-70
2021/06/03 02:20:16;;;;;;;7.50;4.10;;;;;;;11.16;100.00;99789.75;1663804;85;20936;-68
2021/06/03 02:22:44;;;;;;;8.23;4.17;;;;;;;11.07;100.00;99789.91;1664338;86;20987;-69
2021/06/03 02:25:13;;;;;;;9.33;4.55;;;;;;;11.01;100.00;99786.36;1663505;85;21457;-69
2021/06/03 02:27:43;;;;;;;7.78;4.78;;;;;;;10.96;100.00;99791.67;1663517;86;21139;-68
2021/06/03 02:30:17;;;;;;;7.72;4.42;;;;;;;10.94;100.00;99794.59;1663222;85;21025;-70
2021/06/03 02:32:46;;;;;;;8.00;4.40;;;;;;;10.93;100.00;99799.70;1670485;85;20985;-70
2021/06/03 02:35:13;;;;;;;8.00;4.50;;;;;;;10.87;100.00;99794.50;1663716;85;20988;-68
2021/06/03 02:37:43;;;;;;;13.15;4.37;;;;;;;10.85;100.00;99794.77;1663483;86;20897;-69
2021/06/03 02:40:16;;;;;;;8.63;4.70;;;;;;;10.86;100.00;99785.64;1648211;86;21826;-68
2021/06/03 02:42:48;;;;;;;8.48;4.50;;;;;;;10.90;100.00;99793.49;1663322;86;20940;-67
2021/06/03 02:45:21;;;;;;;9.95;4.08;;;;;;;10.90;100.00;99794.00;1663377;86;20945;-68
2021/06/03 02:47:49;;;;;;;7.33;3.95;;;;;;;10.93;100.00;99792.98;1663118;85;20937;-69
2021/06/03 02:50:19;;;;;;;6.08;4.58;;;;;;;11.01;100.00;99790.38;1648184;86;21461;-68
2021/06/03 02:52:50;;;;;;;7.10;5.05;;;;;;;11.16;100.00;99793.23;1670303;85;21421;-69
2021/06/03 02:55:20;;;;;;;7.78;4.58;;;;;;;11.29;100.00;99796.09;1663479;86;20894;-69
2021/06/03 02:57:52;;;;;;;10.00;5.60;;;;;;;11.38;100.00;99793.20;1663548;86;33455;-70
2021/06/03 03:00:25;;;;;;;9.30;6.12;;;;;;;11.47;100.00;99796.27;1663553;86;21009;-71
2021/06/03 03:02:52;;;;;;;11.75;5.00;;;;;;;11.55;100.00;99801.17;1647964;86;20941;-68
2021/06/03 03:05:19;;;;;;;8.30;4.50;;;;;;;11.67;100.00;99802.91;1663800;85;21144;-69
2021/06/03 03:07:48;;;;;;;10.38;4.78;;;;;;;11.78;100.00;99794.69;1663296;86;20957;-70
2021/06/03 03:10:22;;;;;;;10.32;5.05;;;;;;;11.90;100.00;99809.86;1663435;86;21530;-69
2021/06/03 03:12:49;;;;;;;9.15;4.62;;;;;;;11.98;100.00;99810.21;1663530;86;20961;-70
2021/06/03 03:15:17;;;;;;;10.88;4.90;;;;;;;12.05;100.00;99809.97;1663682;85;20996;-70
2021/06/03 03:17:46;;;;;;;5.60;4.58;;;;;;;12.16;100.00;99806.84;1663346;85;21898;-70
2021/06/03 03:20:14;;;;;;;10.72;5.10;;;;;;;12.27;100.00;99814.45;1671054;85;21016;-67
2021/06/03 03:22:41;;;;;;;7.50;4.60;;;;;;;12.34;100.00;99816.38;1663475;86;20881;-66
2021/06/03 03:25:11;;;;;;;8.25;5.35;;;;;;;12.41;100.00;99812.94;1664124;86;21004;-67
2021/06/03 03:27:38;;;;;;;11.63;4.53;;;;;;;12.50;100.00;99814.08;1664328;86;21001;-67
2021/06/03 03:30:09;;;;;;;9.80;4.75;;;;;;;12.59;100.00;99818.42;1664668;86;21111;-67
2021/06/03 03:32:36;;;;;;;8.55;4.55;;;;;;;12.67;100.00;99819.84;1664351;86;21491;-67
2021/06/03 03:35:06;;;;;;;8.45;4.40;;;;;;;12.77;100.00;99826.62;1664357;86;20961;-68
2021/06/03 03:37:34;;;;;;;8.33;4.62;;;;;;;12.86;100.00;99816.44;1652611;86;21016;-67
2021/06/03 03:40:01;;;;;;;11.30;4.92;;;;;;;12.97;99.49;99814.58;1664534;86;20905;-67
2021/06/03 03:42:29;;;;;;;8.98;4.90;;;;;;;13.03;98.28;99821.62;1664729;86;22396;-67
2021/06/03 03:44:56;;;;;;;6.42;4.55;;;;;;;13.09;99.49;99825.15;1664381;86;21084;-68
2021/06/03 03:47:23;;;;;;;11.33;4.15;;;;;;;13.14;98.18;99825.16;1664557;86;21527;-69
2021/06/03 03:49:51;;;;;;;9.18;4.37;;;;;;;13.23;97.71;99829.52;1664379;86;20949;-68
2021/06/03 03:52:18;;;;;;;17.07;4.72;;;;;;;13.34;96.72;99829.03;1664424;86;20913;-68
2021/06/03 03:54:46;;;;;;;5.97;4.42;;;;;;;13.46;96.49;99839.05;1664672;86;21136;-68
2021/06/03 03:57:14;;;;;;;7.67;3.87;;;;;;;13.55;95.18;99832.06;1664341;86;21059;-67
2021/06/03 03:59:43;;;;;;;21.33;4.62;;;;;;;13.64;95.82;99834.48;1664413;86;21555;-68
2021/06/03 04:02:10;;;;;;;7.12;4.25;;;;;;;13.75;94.81;99833.98;1664505;86;20968;-67
2021/06/03 04:04:38;;;;;;;5.72;4.10;;;;;;;13.80;93.54;99839.92;1664798;86;20996;-70
2021/06/03 04:07:06;;;;;;;13.30;3.90;;;;;;;13.90;92.71;99839.94;1664734;86;27103;-68
2021/06/03 04:09:34;;;;;;;;;;;;;;;14.00;91.92;99849.92;1666935;86;20908;-67
2021/06/03 04:12:04;;;;;;;10.50;5.22;;;;;;;14.14;91.14;99849.13;1664856;86;20093;-69
2021/06/03 04:14:33;;;;;;;10.60;4.47;;;;;;;14.28;90.66;99851.27;1647002;87;21007;-68
2021/06/03 04:17:01;;;;;;;6.42;3.75;;;;;;;14.41;88.54;99852.62;1646910;87;20972;-68
2021/06/03 04:19:30;;;;;;;12.25;4.83;;;;;;;14.44;87.53;99846.67;1664512;86;20960;-69
2021/06/03 04:21:58;;;;;;;6.20;4.50;;;;;;;14.47;87.64;99852.88;1664413;86;20946;-69
2021/06/03 04:24:27;;;;;;;8.98;4.62;;;;;;;14.52;85.75;99846.92;1664515;86;25587;-67
2021/06/03 04:26:53;;;;;;;10.48;4.45;;;;;;;14.67;85.05;99850.16;1664550;86;21000;-69
2021/06/03 04:29:20;;;;;;;19.27;4.78;;;;;;;14.76;84.71;99851.78;1664541;86;20870;-69
2021/06/03 04:31:48;;;;;;;9.05;4.10;;;;;;;14.83;84.59;99855.55;1664556;86;21131;-69
2021/06/03 04:34:15;;;;;;;4.85;3.80;;;;;;;14.98;84.37;99857.66;1664459;86;20905;-68
2021/06/03 04:36:43;;;;;;;9.83;3.83;;;;;;;15.10;81.95;99856.55;1664703;86;20937;-68
2021/06/03 04:39:10;;;;;;;8.70;4.50;;;;;;;15.13;81.57;99865.45;1664628;86;21238;-69
2021/06/03 04:41:37;;;;;;;7.67;4.22;;;;;;;15.17;80.06;99863.27;1664546;86;21011;-65
2021/06/03 04:44:05;;;;;;;10.28;4.75;;;;;;;15.27;80.21;99860.27;1664689;86;21196;-66
2021/06/03 04:46:32;;;;;;;6.95;4.28;;;;;;;15.36;78.14;99864.82;1664337;86;20882;-69
2021/06/03 04:48:59;;;;;;;7.45;4.50;;;;;;;15.35;77.12;99869.14;1664620;86;20945;-69
2021/06/03 04:51:26;;;;;;;10.90;6.08;;;;;;;15.31;76.77;99871.61;1675423;85;20992;-69
2021/06/03 04:53:53;;;;;;;9.73;4.42;;;;;;;15.36;75.51;99860.77;1664635;86;21048;-68
2021/06/03 04:56:24;;;;;;;13.57;6.23;;;;;;;15.39;75.66;99868.31;1664573;86;21110;-69
2021/06/03 04:58:51;;;;;;;6.92;4.97;;;;;;;15.46;74.40;99872.08;1652647;86;21405;-69
2021/06/03 05:01:18;;;;;;;7.05;4.47;;;;;;;15.49;74.63;99869.36;1651164;86;20981;-68
2021/06/03 05:03:46;;;;;;;7.95;3.55;;;;;;;15.57;75.00;99870.92;1663539;86;20989;-67
2021/06/03 05:06:26;;;;;;;6.62;3.77;;;;;;;15.58;73.42;99871.20;1672887;85;20930;-68
2021/06/03 05:08:54;;;;;;;6.40;3.60;;;;;;;15.54;73.23;99865.27;1673779;85;21395;-70
2021/06/03 05:11:21;;;;;;;10.53;3.45;;;;;;;15.73;73.40;99863.56;1655458;86;21004;-66
2021/06/03 05:13:49;;;;;;;10.23;4.55;;;;;;;15.81;74.06;99867.02;1673847;85;20985;-66
2021/06/03 05:16:16;;;;;;;8.00;4.00;;;;;;;15.95;73.69;99867.21;1673567;85;20907;-69
2021/06/03 05:18:43;;;;;;;12.63;4.33;;;;;;;16.15;73.32;99872.22;1673503;85;21521;-65
2021/06/03 05:21:10;;;;;;;10.30;3.92;;;;;;;16.23;70.76;99870.24;1673756;85;21116;-70
2021/06/03 05:23:38;;;;;;;8.43;4.95;;;;;;;16.33;71.41;99870.70;1673749;85;20863;-65
2021/06/03 05:26:05;;;;;;;11.28;3.87;;;;;;;16.42;70.35;99879.84;1673765;85;20943;-66
2021/06/03 05:28:32;;;;;;;6.05;3.87;;;;;;;16.43;70.05;99880.89;1673109;85;21013;-65
2021/06/03 05:30:59;;;;;;;7.10;4.17;;;;;;;16.63;68.92;99875.83;1673077;85;21145;-69
2021/06/03 05:33:26;;;;;;;10.85;4.37;;;;;;;16.79;69.81;99881.16;1673593;85;21832;-67
2021/06/03 05:35:55;;;;;;;12.18;4.58;;;;;;;17.10;67.48;99878.92;1673185;85;20946;-68
2021/06/03 05:38:21;;;;;;;;;;;;;;;17.09;68.60;99875.38;1676387;85;21002;-65
2021/06/03 05:40:49;;;;;;;12.40;4.42;;;;;;;17.22;66.10;99871.19;1673758;85;20435;-67
2021/06/03 05:43:16;;;;;;;;;;;;;;;17.28;65.81;99875.98;1675974;85;21675;-67
2021/06/03 05:45:43;;;;;;;8.68;4.22;;;;;;;17.33;65.34;99876.72;1673828;85;21154;-68
2021/06/03 05:48:13;;;;;;;;;;;;;;;17.60;65.24;99884.79;1661973;86;21357;-66
2021/06/03 05:50:40;;;;;;;7.03;3.60;;;;;;;17.68;63.21;99876.54;1673522;85;20463;-67
2021/06/03 05:53:07;;;;;;;9.30;3.17;;;;;;;17.73;63.53;99880.53;1648720;85;20962;-64
2021/06/03 05:55:35;;;;;;;6.00;3.70;;;;;;;17.99;62.10;99887.24;1673621;85;21481;-65
2021/06/03 05:58:05;;;;;;;8.88;3.40;;;;;;;18.33;61.91;99886.17;1673691;85;21178;-67
2021/06/03 06:00:33;;;;;;;12.58;3.67;;;;;;;18.56;61.29;99889.05;1673444;85;21002;-67
2021/06/03 06:03:15;;;;;;;12.40;4.08;;;;;;;18.59;59.35;99885.73;1673437;85;20954;-66
2021/06/03 06:08:26;;;;;;;6.30;3.10;;;;;;;18.79;58.19;99882.69;1664924;85;20983;-65
2021/06/03 06:10:54;;;;;;;3.77;2.98;;;;;;;18.78;56.91;99885.14;1647370;87;21553;-64
2021/06/03 06:13:22;;;;;;;6.92;3.12;;;;;;;19.32;56.49;99882.73;1679293;85;20997;-66
2021/06/03 06:15:51;;;;;;;9.20;3.17;;;;;;;19.32;56.49;99882.73;1679222;85;21053;-64
2021/06/03 06:18:23;;;;;;;5.85;3.20;;;;;;;19.61;54.30;99880.23;1676265;85;21029;-69
2021/06/03 06:20:52;;;;;;;13.03;3.40;;;;;;;19.68;53.90;99877.36;1676194;85;21061;-67
2021/06/03 06:23:21;;;;;;;3.98;2.67;;;;;;;19.33;52.75;99875.37;1676538;85;20942;-64
2021/06/03 06:25:48;;;;;;;6.37;3.20;;;;;;;19.26;52.38;99876.59;1676905;85;21470;-68
2021/06/03 06:28:16;;;;;;;4.90;2.95;;;;;;;19.22;52.81;99881.59;1676377;85;21026;-62
2021/06/03 06:30:44;;;;;;;;;;;;;;;19.36;52.89;99879.66;1678874;85;20997;-67
2021/06/03 06:33:14;;;;;;;6.75;3.08;;;;;;;19.44;52.54;99885.74;1676949;85;20104;-68
2021/06/03 06:35:42;;;;;;;7.80;2.83;;;;;;;19.51;53.02;99883.98;1676580;85;21181;-66
2021/06/03 06:38:10;;;;;;;8.10;3.20;;;;;;;19.72;50.51;99892.55;1676331;85;21021;-69
2021/06/03 06:40:38;;;;;;;5.45;3.15;;;;;;;19.69;51.34;99889.05;1676028;85;21005;-67
2021/06/03 06:43:05;;;;;;;8.93;2.80;;;;;;;19.98;51.82;99889.23;1676356;85;21024;-67
2021/06/03 06:45:36;;;;;;;6.40;2.92;;;;;;;19.94;49.63;99882.78;1676419;85;21556;-63
2021/06/03 06:48:02;;;;;;;10.43;2.90;;;;;;;19.86;50.63;99891.93;1676094;85;21183;-67
2021/06/03 06:50:30;;;;;;;6.40;2.45;;;;;;;20.03;50.17;99891.83;1676785;85;20991;-68
2021/06/03 06:52:56;;;;;;;8.80;3.87;;;;;;;20.23;47.80;99897.35;1676478;85;21501;-66
2021/06/03 06:55:23;;;;;;;6.57;2.57;;;;;;;20.07;47.49;99879.22;1676704;85;21477;-69
2021/06/03 06:57:52;;;;;;;4.42;2.70;;;;;;;19.98;48.14;99879.70;1676857;85;21067;-65
2021/06/03 07:00:24;;;;;;;54.50;3.87;;;;;;;19.99;48.76;99889.47;1676695;85;21508;-68
2021/06/03 07:02:51;;;;;;;4.25;2.60;;;;;;;20.19;49.79;99890.36;1676257;85;21001;-65
2021/06/03 07:05:21;;;;;;;15.63;3.50;;;;;;;20.15;47.60;99881.75;1676458;84;20950;-69
2021/06/03 07:07:49;;;;;;;5.47;3.00;;;;;;;20.03;47.91;99885.82;1676418;85;21001;-66
2021/06/03 07:10:17;;;;;;;6.90;2.35;;;;;;;20.11;46.93;99885.11;1676943;85;20962;-66
2021/06/03 07:12:47;;;;;;;5.53;2.00;;;;;;;20.25;48.02;99888.31;1676809;85;21381;-67
2021/06/03 07:15:14;;;;;;;11.18;2.50;;;;;;;20.23;45.70;99884.52;1676401;85;21086;-67
2021/06/03 07:17:43;;;;;;;10.38;2.75;;;;;;;20.25;44.98;99880.94;1676614;85;21481;-67
2021/06/03 07:20:16;;;;;;;6.47;2.00;;;;;;;20.33;44.63;99890.28;1676184;85;21473;-67
2021/06/03 07:22:48;;;;;;;33.38;4.45;;;;;;;20.38;43.49;99880.61;1676403;85;20985;-70
2021/06/03 07:25:17;;;;;;;5.72;2.33;;;;;;;20.25;43.51;99884.22;1676578;85;21191;-67
2021/06/03 07:27:44;;;;;;;4.50;2.15;;;;;;;20.48;43.18;99889.09;1676541;85;20894;-64
2021/06/03 07:30:21;;;;;;;13.30;2.98;;;;;;;20.70;42.71;99890.47;1676501;85;21473;-68
2021/06/03 07:32:53;;;;;;;4.40;2.30;;;;;;;20.69;43.77;99888.84;1676079;85;21013;-67
2021/06/03 07:35:21;;;;;;;9.43;1.77;;;;;;;21.03;41.32;99881.94;1676719;85;21065;-65
2021/06/03 07:37:53;;;;;;;5.42;1.90;;;;;;;20.83;41.11;99885.24;1676705;85;23131;-68
2021/06/03 07:40:28;;;;;;;3.15;1.60;;;;;;;20.73;41.26;99886.31;1676683;85;21470;-67
2021/06/03 07:43:05;;;;;;;5.65;2.20;;;;;;;20.80;39.45;99888.04;1676704;85;21568;-68
2021/06/03 07:45:34;;;;;;;4.83;2.20;;;;;;;20.92;40.87;99887.42;1676163;85;20934;-66
2021/06/03 07:48:05;;;;;;;2.52;2.08;;;;;;;20.92;41.65;99881.97;1676566;85;21489;-69
2021/06/03 07:50:33;;;;;;;9.75;2.15;;;;;;;20.92;40.06;99883.33;1676937;85;21133;-70
2021/06/03 07:53:01;;;;;;;4.87;1.62;;;;;;;20.78;39.42;99876.63;1676272;85;21021;-67
2021/06/03 07:55:31;;;;;;;6.40;1.80;;;;;;;20.82;38.73;99885.77;1676741;85;21505;-69
2021/06/03 07:58:02;;;;;;;2.35;1.77;;;;;;;21.01;38.73;99880.09;1676109;85;21045;-69
2021/06/03 08:00:30;;;;;;;7.50;2.45;;;;;;;21.25;39.63;99891.97;1676322;85;21287;-66
2021/06/03 08:02:58;;;;;;;10.58;1.90;;;;;;;21.34;38.68;99901.56;1676339;85;21140;-63
2021/06/03 08:05:26;;;;;;;11.20;2.08;;;;;;;21.19;37.18;99881.77;1676065;84;21156;-69
2021/06/03 08:07:54;;;;;;;64.03;5.30;;;;;;;21.07;38.40;99888.39;1676240;85;20990;-67
2021/06/03 08:10:28;;;;;;;4.35;2.00;;;;;;;21.20;38.90;99890.19;1676780;85;20986;-69
2021/06/03 08:12:56;;;;;;;12.30;2.95;;;;;;;21.60;38.20;99883.31;1676317;85;21517;-68
2021/06/03 08:15:27;;;;;;;6.85;2.20;;;;;;;21.65;38.26;99891.91;1676804;85;21906;-67
2021/06/03 08:17:54;;;;;;;3.90;2.17;;;;;;;21.70;37.84;99884.92;1676511;85;20923;-69
2021/06/03 08:20:28;;;;;;;2.27;1.75;;;;;;;22.07;38.42;99885.98;1675353;84;21061;-69
2021/06/03 08:22:56;;;;;;;14.55;2.85;;;;;;;22.43;38.43;99881.55;1642710;87;21044;-65
2021/06/03 08:25:24;;;;;;;8.78;2.80;;;;;;;21.60;35.68;99883.31;1657882;85;20863;-68
2021/06/03 08:27:53;;;;;;;7.00;2.17;;;;;;;21.35;37.28;99889.51;1657857;84;21615;-70
2021/06/03 08:30:21;;;;;;;5.62;1.80;;;;;;;21.54;36.45;99879.14;1649016;87;21029;-69
2021/06/03 08:32:49;;;;;;;5.62;2.33;;;;;;;21.70;36.99;99886.86;1648852;85;21036;-66
2021/06/03 08:35:22;;;;;;;4.97;1.90;;;;;;;21.97;37.09;99895.31;1653028;85;21536;-69
2021/06/03 08:37:54;;;;;;;6.12;1.98;;;;;;;22.03;36.67;99888.00;1649431;85;21157;-69
2021/06/03 08:40:27;;;;;;;2.77;1.90;;;;;;;21.97;37.77;99890.64;1649247;86;21143;-69
2021/06/03 08:42:58;;;;;;;10.48;2.20;;;;;;;22.26;37.11;99879.08;1647879;87;21034;-66
2021/06/03 08:45:29;;;;;;;2.92;1.62;;;;;;;22.57;36.61;99886.84;1648694;87;20946;-69
2021/06/03 08:47:57;;;;;;;21.62;3.25;;;;;;;22.35;35.86;99879.08;1648961;86;21013;-65
2021/06/03 08:50:33;;;;;;;2.42;1.52;;;;;;;22.37;35.41;99877.39;1649055;87;20970;-70
2021/06/03 08:53:05;;;;;;;8.65;2.08;;;;;;;22.26;34.14;99887.84;1625397;87;20981;-70
2021/06/03 08:58:22;;;;;;;5.00;2.05;;;;;;;21.59;34.85;99887.17;1649189;86;21065;-66
2021/06/03 09:00:53;;;;;;;2.25;1.82;;;;;;;21.82;36.00;99891.93;1648960;87;21057;-68
2021/06/03 09:03:26;;;;;;;3.72;1.90;;;;;;;22.25;35.76;99890.36;1649300;87;21001;-65
2021/06/03 09:05:53;;;;;;;5.53;1.87;;;;;;;22.04;35.10;99880.03;1648787;86;22002;-62
2021/06/03 09:08:32;;;;;;;4.40;1.75;;;;;;;22.01;35.22;99879.89;1646118;87;21025;-68
2021/06/03 09:11:04;;;;;;;4.37;1.60;;;;;;;21.79;35.58;99878.12;1646126;87;21054;-68
2021/06/03 09:13:34;;;;;;;7.17;2.12;;;;;;;21.56;35.56;99878.27;1646233;87;20911;-67
2021/06/03 09:16:17;;;;;;;1.87;1.50;;;;;;;21.19;35.91;99878.20;1646450;87;20957;-69
2021/06/03 09:18:55;;;;;;;7.92;2.98;;;;;;;21.00;37.88;99870.87;1646055;87;21187;-68
2021/06/03 09:21:29;;;;;;;2.80;1.80;;;;;;;21.60;37.21;99866.13;1645938;87;20953;-70
2021/06/03 09:24:10;;;;;;;5.15;1.80;;;;;;;21.55;36.12;99880.73;1646315;87;20938;-69
2021/06/03 09:26:53;;;;;;;12.68;2.02;;;;;;;21.58;36.34;99863.73;1645641;87;20958;-67
2021/06/03 09:29:29;;;;;;;2.12;1.67;;;;;;;21.48;34.66;99865.95;1646141;87;20986;-68
2021/06/03 09:32:12;;;;;;;4.03;1.80;;;;;;;21.29;35.58;99863.46;1646283;87;21138;-67
2021/06/03 09:34:41;;;;;;;7.90;1.92;;;;;;;21.32;35.90;99886.85;1646089;87;21037;-66
2021/06/03 09:37:10;;;;;;;5.42;2.55;;;;;;;21.08;34.75;99883.73;1646195;87;20993;-69
2021/06/03 09:39:46;;;;;;;11.03;6.67;;;;;;;20.73;36.26;99876.20;1646195;87;21510;-68
2021/06/03 09:42:18;;;;;;;6.42;2.60;;;;;;;20.72;36.31;99880.03;1645877;87;21235;-68
2021/06/03 09:44:56;;;;;;;8.80;3.17;;;;;;;20.56;36.55;99872.03;1648155;87;21200;-66
2021/06/03 09:47:35;;;;;;;9.73;2.62;;;;;;;20.52;36.49;99886.00;1648253;87;20962;-68
2021/06/03 09:50:10;;;;;;;9.23;2.95;;;;;;;20.59;36.13;99878.21;1648356;87;20950;-67
2021/06/03 09:52:39;;;;;;;4.17;2.30;;;;;;;20.54;36.41;99878.31;1647679;87;20979;-61
2021/06/03 09:55:15;;;;;;;7.67;2.62;;;;;;;20.47;35.92;99876.02;1648371;87;21009;-66
2021/06/03 09:57:44;;;;;;;7.65;3.30;;;;;;;20.64;36.44;99879.44;1646500;87;21102;-65
2021/06/03 10:00:35;;;;;;;12.15;3.67;;;;;;;21.09;36.59;99873.88;1646130;87;20966;-71
2021/06/03 10:03:03;;;;;;;7.72;3.72;;;;;;;21.36;36.47;99874.72;1628881;87;20917;-69
2021/06/03 10:05:35;;;;;;;13.43;5.00;;;;;;;21.39;35.71;99880.40;1608468;88;20984;-69
2021/06/03 10:08:08;;;;;;;4.12;2.15;;;;;;;21.17;35.34;99890.03;1630053;88;20989;-67
2021/06/03 10:10:39;;;;;;;12.82;3.20;;;;;;;20.85;34.51;99882.44;1629763;88;21158;-69
2021/06/03 10:13:11;;;;;;;9.90;4.80;;;;;;;20.50;35.81;99889.59;1588593;88;20944;-64
2021/06/03 10:15:42;;;;;;;10.48;3.50;;;;;;;20.24;36.79;99887.52;1629969;88;20960;-68
2021/06/03 10:18:14;;;;;;;7.20;3.98;;;;;;;20.13;37.00;99869.79;1629919;88;20952;-67
2021/06/03 10:20:54;;;;;;;12.35;6.10;;;;;;;20.08;38.06;99879.45;1633073;87;21020;-64
2021/06/03 10:23:29;;;;;;;5.75;2.95;;;;;;;20.09;39.10;99891.41;1630461;87;23088;-61
2021/06/03 10:26:04;;;;;;;47.50;6.62;;;;;;;20.32;39.18;99894.94;1630348;87;21024;-72
2021/06/03 10:28:31;;;;;;;3.67;2.40;;;;;;;20.53;39.66;99885.70;1634350;87;22139;-65
2021/06/03 10:31:07;;;;;;;8.60;3.20;;;;;;;20.74;38.62;99881.09;1594527;88;21028;-66
2021/06/03 10:33:41;;;;;;;6.87;2.58;;;;;;;20.66;38.31;99889.48;1631652;85;21109;-67
2021/06/03 10:36:13;;;;;;;8.45;3.33;;;;;;;20.48;39.11;99887.73;1632862;87;21519;-66
2021/06/03 10:38:45;;;;;;;14.23;3.55;;;;;;;20.39;39.37;99892.34;1633038;87;21064;-66
2021/06/03 10:41:16;;;;;;;5.50;2.37;;;;;;;20.44;40.35;99894.37;1650562;86;21692;-63
2021/06/03 10:43:45;;;;;;;9.40;2.62;;;;;;;20.49;39.26;99890.72;1653570;86;20940;-67
2021/06/03 10:46:15;;;;;;;4.50;3.17;;;;;;;20.44;40.75;99897.67;1653885;86;20980;-66
2021/06/03 10:48:46;;;;;;;13.90;5.92;;;;;;;20.32;40.67;99892.20;1653346;86;21172;-65
2021/06/03 10:51:18;;;;;;;12.05;5.50;;;;;;;20.16;40.46;99881.42;1653649;86;21782;-66
2021/06/03 10:53:47;;;;;;;8.38;3.52;;;;;;;20.09;41.28;99883.80;1654130;86;21522;-65
2021/06/03 10:56:21;;;;;;;5.42;2.70;;;;;;;19.98;41.52;99876.97;1653988;86;20952;-64
2021/06/03 10:58:50;;;;;;;6.20;3.33;;;;;;;19.79;40.36;99868.39;1653773;86;20924;-69
2021/06/03 11:01:22;;;;;;;9.03;2.93;;;;;;;19.68;41.76;99891.54;1649039;86;21600;-64
2021/06/03 11:04:01;;;;;;;11.50;4.03;;;;;;;19.70;41.47;99888.76;1633867;87;21006;-65
2021/06/03 11:06:30;;;;;;;8.30;4.28;;;;;;;19.70;41.57;99895.56;1633667;87;20968;-66
2021/06/03 11:09:06;;;;;;;7.60;3.33;;;;;;;19.91;40.85;99891.02;1633876;87;21570;-69
2021/06/03 11:11:39;;;;;;;10.40;3.30;;;;;;;20.10;40.45;99884.04;1638231;86;21089;-67
2021/06/03 11:14:16;;;;;;;3.87;2.60;;;;;;;20.31;39.64;99884.36;1669883;86;20983;-68
2021/06/03 11:16:53;;;;;;;5.65;2.75;;;;;;;20.32;39.46;99878.58;1669657;86;20901;-66
2021/06/03 11:19:29;;;;;;;5.35;2.20;;;;;;;20.46;40.92;99896.80;1669712;86;20976;-64
2021/06/03 11:22:04;;;;;;;4.33;2.67;;;;;;;20.42;39.27;99882.97;1669748;86;21002;-68
2021/06/03 11:24:38;;;;;;;5.67;2.77;;;;;;;20.45;40.09;99885.06;1669436;86;20992;-67
2021/06/03 11:27:16;;;;;;;4.03;3.08;;;;;;;20.51;40.13;99881.11;1669707;86;21028;-68
2021/06/03 11:29:54;;;;;;;9.27;3.87;;;;;;;20.74;40.85;99881.89;1669989;86;20965;-65
2021/06/03 11:32:34;;;;;;;4.05;3.20;;;;;;;20.84;39.84;99884.91;1669803;86;21766;-65
2021/06/03 11:35:09;;;;;;;4.45;2.83;;;;;;;20.97;39.32;99879.13;1669765;86;21009;-66
2021/06/03 11:37:43;;;;;;;4.28;2.40;;;;;;;21.09;39.10;99872.51;1669901;86;21002;-67
2021/06/03 11:40:24;;;;;;;7.42;2.70;;;;;;;21.01;38.76;99886.91;1669664;86;20865;-67
2021/06/03 11:43:05;;;;;;;6.85;2.90;;;;;;;21.05;40.22;99890.62;1668686;86;20837;-66
2021/06/03 11:45:35;;;;;;;7.47;2.98;;;;;;;21.00;39.32;99889.41;1669862;86;20944;-68
2021/06/03 11:48:08;;;;;;;4.42;2.47;;;;;;;21.11;39.37;99870.81;1669508;86;21578;-67
2021/06/03 11:50:39;;;;;;;5.08;2.10;;;;;;;21.38;39.90;99889.66;1669522;86;21008;-68